Dublin, Georgia
Current Conditions -  °F | °C
As of 1:35 AM on Wednesday 26 Nov 2014 (Local Time) from KDBN Reporting Station
Light Rain Light Rain  
Wind Chill:   Ceiling: 3100
Heat Index:   Visibility: 7mi
Dew Point:   Wind: 7mph
Humidity: 100%   Direction: 320°NW
Pressure: 30.02"   Gusts: NA
Location:  32.54°N, 82.91°W
Report Text: KDBN 260635Z AUTO 32006KT 7SM -RA SCT005 BKN031 OVC042 07/07 A3002 RMK AO2
Loading
Personal Weather Stations






























Interactive Weather Map New forecast layout! Learn more

10-Day Weather Forecast

Advertisements
Track Severe Weather on mobile